Mount Washington, Massachusetts
Current Conditions -  °F | °C
As of 4:54 PM on Wednesday 28 Jan 2015 (Local Time) from KPSF Reporting Station
Clear Clear  
Wind Chill: 10°   Ceiling: Unl
Heat Index: 17°   Visibility: 10mi
Dew Point:   Wind: 5mph
Humidity: 56%   Direction: 250°WSW
Pressure: 30.06"   Gusts: NA
Location:  42.094°N, 73.4662°W
Report Text: KPSF 282154Z AUTO 25004KT 10SM CLR M08/M16 A3006 RMK AO2 SLP209 T10831156
Loading
Personal Weather Stations






























Interactive Weather Map New forecast layout! Learn more

10-Day Weather Forecast

Advertisements
Track Severe Weather on mobile